createdAt,value
2023-04-30T00:02:02.315Z,5.60
2023-04-30T00:07:07.186Z,5.72
2023-04-30T00:12:10.248Z,5.20
2023-04-30T00:17:12.322Z,5.75
2023-04-30T00:22:13.941Z,5.28
2023-04-30T00:27:15.635Z,5.75
2023-04-30T00:32:17.518Z,5.65
2023-04-30T00:37:19.214Z,5.95
2023-04-30T00:42:21.096Z,6.50
2023-04-30T00:47:22.898Z,5.90
2023-04-30T00:52:24.701Z,5.93
2023-04-30T00:57:26.825Z,6.00
2023-04-30T01:02:29.299Z,6.13
2023-04-30T01:07:32.147Z,6.25
2023-04-30T01:13:05.021Z,6.30
2023-04-30T01:18:18.672Z,6.25
2023-04-30T01:23:42.266Z,7.25
2023-04-30T01:28:46.656Z,6.75
2023-04-30T01:33:48.237Z,7.22
2023-04-30T01:39:14.050Z,6.63
2023-04-30T01:44:51.134Z,6.57
2023-04-30T01:50:18.893Z,6.50
2023-04-30T01:55:28.175Z,7.40
2023-04-30T02:00:30.960Z,8.05
2023-04-30T02:05:33.042Z,6.85
2023-04-30T02:10:35.015Z,7.00
2023-04-30T02:15:37.563Z,7.10
2023-04-30T02:20:39.192Z,6.75
2023-04-30T02:25:41.316Z,6.63
2023-04-30T02:30:43.111Z,7.10
2023-04-30T02:35:44.885Z,6.90
2023-04-30T02:40:46.485Z,6.85
2023-04-30T02:45:48.515Z,7.93
2023-04-30T02:50:50.328Z,7.35
2023-04-30T02:55:52.105Z,7.50
2023-04-30T03:00:54.040Z,8.32
2023-04-30T03:05:59.341Z,7.95
2023-04-30T03:11:01.486Z,8.10
2023-04-30T03:16:07.561Z,8.18
2023-04-30T03:21:09.659Z,9.27
2023-04-30T03:26:12.172Z,8.73
2023-04-30T03:31:14.130Z,8.75
2023-04-30T03:36:15.900Z,9.40
2023-04-30T03:41:19.929Z,10.55
2023-04-30T03:46:22.249Z,9.13
2023-04-30T03:51:24.390Z,9.50
2023-04-30T03:56:27.040Z,9.32
2023-04-30T04:01:29.915Z,9.23
2023-04-30T04:06:33.837Z,9.32
2023-04-30T04:11:36.669Z,9.20
2023-04-30T04:16:40.122Z,9.80
2023-04-30T04:21:42.385Z,10.13
2023-04-30T04:26:50.363Z,9.68
2023-04-30T04:31:53.440Z,10.13
2023-04-30T04:36:55.373Z,10.30
2023-04-30T04:41:58.166Z,10.05
2023-04-30T04:47:00.785Z,10.70
2023-04-30T04:52:02.725Z,10.90
2023-04-30T04:57:05.073Z,10.15
2023-04-30T05:02:07.685Z,10.10
2023-04-30T05:07:12.066Z,10.65
2023-04-30T05:12:19.050Z,10.63
2023-04-30T05:17:21.305Z,10.68
2023-04-30T05:22:23.121Z,11.15
2023-04-30T05:27:24.656Z,10.60
2023-04-30T05:32:27.757Z,10.70
2023-04-30T05:37:29.804Z,11.25
2023-04-30T05:42:32.845Z,11.52
2023-04-30T05:47:36.259Z,11.00
2023-04-30T05:52:38.748Z,11.10
2023-04-30T05:57:40.258Z,11.40
2023-04-30T06:02:41.975Z,12.60
2023-04-30T06:07:44.433Z,12.00
2023-04-30T06:12:49.508Z,11.85
2023-04-30T06:17:56.943Z,12.30
2023-04-30T06:23:03.007Z,13.20
2023-04-30T06:28:12.007Z,12.05
2023-04-30T06:33:18.959Z,12.60
2023-04-30T06:38:25.568Z,12.47
2023-04-30T06:43:31.040Z,11.77
2023-04-30T06:48:37.997Z,12.15
2023-04-30T06:53:43.182Z,12.27
2023-04-30T06:58:46.011Z,11.50
2023-04-30T07:03:50.316Z,11.55
2023-04-30T07:08:56.008Z,10.82
2023-04-30T07:13:58.673Z,11.23
2023-04-30T07:19:03.867Z,10.23
2023-04-30T07:24:10.701Z,9.77
2023-04-30T07:29:17.148Z,8.68
2023-04-30T07:34:20.958Z,9.98
2023-04-30T07:39:25.549Z,9.40
2023-04-30T07:44:32.235Z,8.70
2023-04-30T07:49:37.947Z,7.85
2023-04-30T07:54:46.220Z,7.35
2023-04-30T07:59:52.341Z,8.65
2023-04-30T08:05:19.176Z,7.25
2023-04-30T08:10:43.989Z,7.40
2023-04-30T08:16:06.770Z,6.13
2023-04-30T08:21:30.976Z,4.63
2023-04-30T08:26:56.868Z,5.70
2023-04-30T08:32:22.493Z,6.45
2023-04-30T08:37:47.029Z,6.88
2023-04-30T08:43:13.108Z,5.63
2023-04-30T08:48:37.690Z,6.40
2023-04-30T08:53:41.300Z,6.90
2023-04-30T08:58:47.523Z,5.10
2023-04-30T09:03:51.363Z,5.28
2023-04-30T09:08:55.922Z,4.68
2023-04-30T09:14:04.001Z,4.50
2023-04-30T09:24:18.734Z,5.13
2023-04-30T09:29:37.837Z,5.55
2023-04-30T09:39:54.623Z,10.03
2023-04-30T09:44:58.774Z,7.15
2023-04-30T09:50:00.742Z,4.80
2023-04-30T09:55:06.475Z,4.25
2023-04-30T10:00:14.712Z,3.97
2023-04-30T10:05:23.526Z,3.90
2023-04-30T10:10:32.873Z,3.45
2023-04-30T10:15:42.571Z,3.78
2023-04-30T10:20:51.196Z,3.45
2023-04-30T10:25:54.775Z,3.30
2023-04-30T10:30:57.648Z,3.30
2023-04-30T10:36:06.482Z,3.38
2023-04-30T10:41:13.133Z,3.00
2023-04-30T10:46:24.218Z,3.00
2023-04-30T10:51:44.900Z,2.97
2023-04-30T10:56:47.789Z,2.83
2023-04-30T11:02:03.122Z,2.90
2023-04-30T11:07:11.682Z,2.40
2023-04-30T11:12:31.795Z,2.85
2023-04-30T11:17:33.760Z,2.30
2023-04-30T11:22:38.579Z,2.10
2023-04-30T11:27:47.685Z,2.30
2023-04-30T11:32:50.219Z,2.30
2023-04-30T11:37:55.922Z,2.30
2023-04-30T11:42:58.883Z,2.25
2023-04-30T11:48:01.167Z,2.60
2023-04-30T11:53:05.742Z,2.40
2023-04-30T11:58:13.091Z,2.10
2023-04-30T12:03:19.780Z,2.60
2023-04-30T12:08:25.753Z,2.45
2023-04-30T12:13:31.439Z,1.83
2023-04-30T12:18:37.260Z,2.03
2023-04-30T12:23:41.407Z,2.15
2023-04-30T12:28:43.218Z,1.90
2023-04-30T12:33:54.040Z,1.98
2023-04-30T12:39:13.414Z,2.10
2023-04-30T12:44:27.844Z,2.15
2023-04-30T12:49:36.136Z,1.83
2023-04-30T13:00:01.910Z,1.70
2023-04-30T13:05:05.465Z,1.58
2023-04-30T13:10:08.801Z,1.40
2023-04-30T13:15:11.945Z,1.70
2023-04-30T13:20:20.120Z,1.60
2023-04-30T13:25:26.285Z,1.45
2023-04-30T13:30:30.147Z,1.48
2023-04-30T13:35:31.985Z,1.45
2023-04-30T13:40:37.122Z,1.50
2023-04-30T13:45:42.952Z,1.40
2023-04-30T13:50:45.872Z,1.20
2023-04-30T13:55:47.521Z,1.33
2023-04-30T14:00:49.445Z,1.25
2023-04-30T14:05:51.517Z,1.48
2023-04-30T14:10:53.335Z,1.13
2023-04-30T14:15:56.139Z,1.15
2023-04-30T14:20:57.971Z,1.10
2023-04-30T14:25:59.862Z,1.17
2023-04-30T14:31:01.590Z,1.10
2023-04-30T14:36:04.070Z,1.52
2023-04-30T14:41:06.354Z,1.10
2023-04-30T14:46:09.579Z,1.00
2023-04-30T14:51:34.789Z,1.17
2023-04-30T14:56:40.611Z,1.40
2023-04-30T15:01:43.339Z,1.02
2023-04-30T15:06:45.160Z,0.98
2023-04-30T15:11:46.853Z,1.05
2023-04-30T15:16:48.971Z,0.90
2023-04-30T15:21:50.670Z,1.10
2023-04-30T15:26:54.445Z,1.00
2023-04-30T15:31:56.657Z,1.02
2023-04-30T15:36:59.019Z,1.00
2023-04-30T15:42:00.922Z,1.20
2023-04-30T15:47:02.622Z,1.25
2023-04-30T15:52:04.800Z,1.30
2023-04-30T15:57:09.614Z,1.20
2023-04-30T16:02:14.112Z,1.60
2023-04-30T16:07:17.239Z,1.42
2023-04-30T16:12:22.049Z,1.73
2023-04-30T16:17:25.107Z,1.70
2023-04-30T16:22:30.421Z,1.20
2023-04-30T16:27:33.630Z,1.27
2023-04-30T16:32:37.871Z,0.93
2023-04-30T16:37:39.873Z,0.93
2023-04-30T16:42:41.820Z,1.02
2023-04-30T16:47:44.731Z,1.00
2023-04-30T16:52:46.416Z,1.15
2023-04-30T16:57:48.094Z,0.80
2023-04-30T17:02:54.714Z,0.90
2023-04-30T17:07:58.235Z,1.00
2023-04-30T17:13:04.095Z,1.10
2023-04-30T17:18:10.761Z,0.93
2023-04-30T17:23:14.906Z,1.10
2023-04-30T17:28:17.126Z,1.20
2023-04-30T17:33:21.270Z,1.20
2023-04-30T17:38:25.271Z,0.93
2023-04-30T17:43:27.648Z,0.88
2023-04-30T17:48:32.880Z,1.27
2023-04-30T17:53:39.594Z,1.33
2023-04-30T17:58:47.446Z,1.23
2023-04-30T18:09:03.192Z,1.17
2023-04-30T18:14:09.362Z,1.35
2023-04-30T18:19:17.046Z,1.13
2023-04-30T18:24:23.215Z,1.35
2023-04-30T18:29:29.916Z,1.13
2023-04-30T18:34:36.914Z,1.10
2023-04-30T18:39:41.073Z,1.13
2023-04-30T18:44:43.355Z,1.55
2023-04-30T18:49:48.663Z,2.67
2023-04-30T18:54:52.310Z,1.30
2023-04-30T18:59:57.775Z,1.42
2023-04-30T19:05:05.725Z,1.10
2023-04-30T19:10:11.718Z,1.27
2023-04-30T19:15:20.467Z,1.10
2023-04-30T19:20:26.562Z,1.17
2023-04-30T19:25:32.238Z,1.50
2023-04-30T19:30:36.584Z,1.20
2023-04-30T19:35:40.796Z,1.40
2023-04-30T19:40:47.704Z,1.50
2023-04-30T19:45:58.205Z,1.60
2023-04-30T19:51:05.406Z,2.10
2023-04-30T19:56:11.870Z,2.30
2023-04-30T20:01:20.262Z,1.40
2023-04-30T20:11:27.922Z,2.22
2023-04-30T20:16:34.061Z,2.25
2023-04-30T20:21:37.897Z,2.22
2023-04-30T20:26:44.085Z,1.50
2023-04-30T20:31:47.781Z,1.63
2023-04-30T20:36:49.631Z,1.33
2023-04-30T20:41:54.464Z,1.83
2023-04-30T20:46:57.138Z,2.33
2023-04-30T20:52:00.401Z,2.00
2023-04-30T20:57:07.857Z,1.98
2023-04-30T21:02:12.319Z,1.57
2023-04-30T21:07:14.597Z,1.58
2023-04-30T21:12:20.603Z,1.70
2023-04-30T21:17:24.394Z,1.60
2023-04-30T21:22:26.403Z,2.10
2023-04-30T21:27:28.285Z,2.20
2023-04-30T21:32:29.933Z,2.22
2023-04-30T21:37:31.610Z,1.60
2023-04-30T21:42:33.997Z,1.77
2023-04-30T21:47:39.300Z,1.85
2023-04-30T21:52:42.760Z,1.67
2023-04-30T21:57:48.309Z,2.33
2023-04-30T22:02:53.004Z,3.03
2023-04-30T22:07:57.824Z,2.30
2023-04-30T22:13:00.446Z,1.98
2023-04-30T22:18:02.821Z,1.60
2023-04-30T22:23:05.779Z,1.90
2023-04-30T22:28:10.984Z,1.70
2023-04-30T22:33:13.993Z,1.88
2023-04-30T22:38:18.788Z,2.05
2023-04-30T22:43:23.380Z,2.50
2023-04-30T22:48:28.019Z,2.80
2023-04-30T22:53:30.671Z,2.65
2023-04-30T22:58:33.094Z,2.60
2023-04-30T23:03:35.727Z,2.33
2023-04-30T23:08:39.131Z,2.42
2023-04-30T23:13:41.188Z,2.88
2023-04-30T23:18:42.846Z,3.15
2023-04-30T23:23:44.497Z,2.90
2023-04-30T23:28:50.401Z,3.58
2023-04-30T23:33:54.959Z,3.33
2023-04-30T23:38:57.151Z,3.10
2023-04-30T23:43:58.785Z,3.08
2023-04-30T23:49:00.661Z,3.30
2023-04-30T23:54:05.261Z,3.47
2023-04-30T23:59:08.844Z,3.15
